createdAt,value
2023-04-30T00:02:20.503Z,19.70
2023-04-30T00:05:22.352Z,16.60
2023-04-30T00:08:24.004Z,18.10
2023-04-30T00:11:25.782Z,15.60
2023-04-30T00:14:27.562Z,14.50
2023-04-30T00:17:29.442Z,15.40
2023-04-30T00:20:31.889Z,14.80
2023-04-30T00:23:33.664Z,15.10
2023-04-30T00:26:35.310Z,14.30
2023-04-30T00:29:37.203Z,13.90
2023-04-30T00:32:39.112Z,14.70
2023-04-30T00:35:41.774Z,13.30
2023-04-30T00:38:43.552Z,12.90
2023-04-30T00:41:45.630Z,14.80
2023-04-30T00:44:47.566Z,13.10
2023-04-30T00:47:49.662Z,13.00
2023-04-30T00:50:51.369Z,12.90
2023-04-30T00:53:53.502Z,11.40
2023-04-30T00:56:55.810Z,11.80
2023-04-30T00:59:58.013Z,9.70
2023-04-30T01:06:02.806Z,9.80
2023-04-30T01:09:04.885Z,8.70
2023-04-30T01:12:20.928Z,7.90
2023-04-30T01:15:37.795Z,6.60
2023-04-30T01:18:47.720Z,8.00
2023-04-30T01:21:50.210Z,7.50
2023-04-30T01:28:16.004Z,7.10
2023-04-30T01:31:19.420Z,6.80
2023-04-30T01:34:21.210Z,7.20
2023-04-30T01:37:37.922Z,8.00
2023-04-30T01:40:45.774Z,13.10
2023-04-30T01:44:11.631Z,8.10
2023-04-30T01:47:29.938Z,6.60
2023-04-30T01:50:46.781Z,7.10
2023-04-30T01:53:49.038Z,7.60
2023-04-30T01:59:57.909Z,8.20
2023-04-30T02:02:59.789Z,9.50
2023-04-30T02:06:01.636Z,13.10
2023-04-30T02:09:05.584Z,11.80
2023-04-30T02:12:07.444Z,12.00
2023-04-30T02:15:09.951Z,13.40
2023-04-30T02:18:11.720Z,13.90
2023-04-30T02:21:13.779Z,14.70
2023-04-30T02:24:15.468Z,13.80
2023-04-30T02:27:17.654Z,18.10
2023-04-30T02:30:20.290Z,16.50
2023-04-30T02:33:22.311Z,13.90
2023-04-30T02:36:23.997Z,18.10
2023-04-30T02:39:26.419Z,15.80
2023-04-30T02:42:28.175Z,15.30
2023-04-30T02:45:31.493Z,18.50
2023-04-30T02:48:33.220Z,15.00
2023-04-30T02:51:34.886Z,19.00
2023-04-30T02:54:36.575Z,15.90
2023-04-30T02:57:38.472Z,19.60
2023-04-30T03:00:40.267Z,15.20
2023-04-30T03:03:42.003Z,24.10
2023-04-30T03:06:43.986Z,32.50
2023-04-30T03:09:46.160Z,27.70
2023-04-30T03:12:47.909Z,28.10
2023-04-30T03:15:49.743Z,28.30
2023-04-30T03:18:51.479Z,20.50
2023-04-30T03:21:54.482Z,29.30
2023-04-30T03:24:56.204Z,19.80
2023-04-30T03:27:57.969Z,17.20
2023-04-30T03:31:04.582Z,20.80
2023-04-30T03:34:06.483Z,21.20
2023-04-30T03:37:08.429Z,15.60
2023-04-30T03:40:11.034Z,15.80
2023-04-30T03:43:12.728Z,15.30
2023-04-30T03:46:14.512Z,15.60
2023-04-30T03:49:16.245Z,12.30
2023-04-30T03:52:17.997Z,12.50
2023-04-30T03:55:20.026Z,14.40
2023-04-30T03:58:22.037Z,10.30
2023-04-30T04:01:24.130Z,14.80
2023-04-30T04:04:25.999Z,13.40
2023-04-30T04:07:28.868Z,15.80
2023-04-30T04:10:31.860Z,13.70
2023-04-30T04:13:33.865Z,14.90
2023-04-30T04:16:36.673Z,15.70
2023-04-30T04:19:38.517Z,17.50
2023-04-30T04:22:40.373Z,17.30
2023-04-30T04:25:43.747Z,19.20
2023-04-30T04:28:47.088Z,16.80
2023-04-30T04:31:50.448Z,14.50
2023-04-30T04:34:53.748Z,17.30
2023-04-30T04:37:55.877Z,14.70
2023-04-30T04:40:57.647Z,16.10
2023-04-30T04:44:01.154Z,14.50
2023-04-30T04:47:03.765Z,14.20
2023-04-30T04:50:07.141Z,17.60
2023-04-30T04:53:08.945Z,13.40
2023-04-30T04:56:10.676Z,15.20
2023-04-30T04:59:12.749Z,16.80
2023-04-30T05:02:14.500Z,17.90
2023-04-30T05:05:16.504Z,15.00
2023-04-30T05:08:18.315Z,16.40
2023-04-30T05:11:22.138Z,16.10
2023-04-30T05:14:24.876Z,16.30
2023-04-30T05:17:26.702Z,19.50
2023-04-30T05:20:28.558Z,16.30
2023-04-30T05:23:30.293Z,14.90
2023-04-30T05:26:31.983Z,15.40
2023-04-30T05:29:33.644Z,17.60
2023-04-30T05:32:35.380Z,13.40
2023-04-30T05:35:37.107Z,14.30
2023-04-30T05:38:38.868Z,13.80
2023-04-30T05:41:40.700Z,13.80
2023-04-30T05:44:42.428Z,12.90
2023-04-30T05:47:44.356Z,14.90
2023-04-30T05:50:46.095Z,12.20
2023-04-30T05:53:47.762Z,10.80
2023-04-30T05:56:49.571Z,12.40
2023-04-30T05:59:51.289Z,13.10
2023-04-30T06:02:53.100Z,12.70
2023-04-30T06:05:54.878Z,15.00
2023-04-30T06:08:57.102Z,12.00
2023-04-30T06:11:58.869Z,13.10
2023-04-30T06:15:00.772Z,12.80
2023-04-30T06:18:02.981Z,10.90
2023-04-30T06:24:06.431Z,28.10
2023-04-30T06:27:08.178Z,23.00
2023-04-30T06:30:10.198Z,14.10
2023-04-30T06:33:11.953Z,14.50
2023-04-30T06:36:13.644Z,13.70
2023-04-30T06:39:16.092Z,9.60
2023-04-30T06:42:17.849Z,11.40
2023-04-30T06:45:20.003Z,11.00
2023-04-30T06:48:22.375Z,10.20
2023-04-30T06:51:24.063Z,9.10
2023-04-30T06:54:28.637Z,8.90
2023-04-30T06:57:31.285Z,8.40
2023-04-30T07:00:33.620Z,8.90
2023-04-30T07:03:35.691Z,10.30
2023-04-30T07:09:39.392Z,11.80
2023-04-30T07:12:41.355Z,9.80
2023-04-30T07:15:43.236Z,10.80
2023-04-30T07:18:48.227Z,9.20
2023-04-30T07:21:49.857Z,7.20
2023-04-30T07:24:51.524Z,12.90
2023-04-30T07:27:54.755Z,10.40
2023-04-30T07:30:56.721Z,8.20
2023-04-30T07:33:58.460Z,6.70
2023-04-30T07:37:00.721Z,7.20
2023-04-30T07:43:04.933Z,10.30
2023-04-30T07:46:06.947Z,5.90
2023-04-30T07:49:08.810Z,6.80
2023-04-30T07:52:11.884Z,7.80
2023-04-30T07:55:13.620Z,8.50
2023-04-30T07:58:15.425Z,7.40
2023-04-30T08:01:17.331Z,6.90
2023-04-30T08:04:19.077Z,7.90
2023-04-30T08:07:21.762Z,7.40
2023-04-30T08:10:23.570Z,6.90
2023-04-30T08:13:25.486Z,5.40
2023-04-30T08:16:27.518Z,8.30
2023-04-30T08:22:31.007Z,6.70
2023-04-30T08:25:33.593Z,5.60
2023-04-30T08:28:35.679Z,8.10
2023-04-30T08:31:37.587Z,4.80
2023-04-30T08:34:42.962Z,5.70
2023-04-30T08:37:44.888Z,5.20
2023-04-30T08:40:56.183Z,7.10
2023-04-30T08:44:01.025Z,6.40
2023-04-30T08:47:03.146Z,5.30
2023-04-30T08:50:05.729Z,4.40
2023-04-30T08:53:08.602Z,11.20
2023-04-30T08:56:10.892Z,3.70
2023-04-30T08:59:13.141Z,5.10
2023-04-30T09:05:16.648Z,4.30
2023-04-30T09:08:19.740Z,7.90
2023-04-30T09:11:25.852Z,6.30
2023-04-30T09:14:27.872Z,5.30
2023-04-30T09:17:30.408Z,5.30
2023-04-30T09:20:32.250Z,6.00
2023-04-30T09:23:33.993Z,5.60
2023-04-30T09:26:38.080Z,7.90
2023-04-30T09:29:39.830Z,6.30
2023-04-30T09:32:57.009Z,5.50
2023-04-30T09:36:08.651Z,6.20
2023-04-30T09:39:15.271Z,5.30
2023-04-30T09:42:19.001Z,9.70
2023-04-30T09:45:20.761Z,5.80
2023-04-30T09:48:24.044Z,4.00
2023-04-30T09:51:26.640Z,6.30
2023-04-30T09:54:30.263Z,5.00
2023-04-30T09:57:35.613Z,4.90
2023-04-30T10:00:38.980Z,5.10
2023-04-30T10:03:42.386Z,6.40
2023-04-30T10:06:45.504Z,6.30
2023-04-30T10:10:11.070Z,6.80
2023-04-30T10:13:18.301Z,6.40
2023-04-30T10:16:39.760Z,4.50
2023-04-30T10:19:47.933Z,5.30
2023-04-30T10:22:49.861Z,2.50
2023-04-30T10:25:52.315Z,3.60
2023-04-30T10:28:58.426Z,7.00
2023-04-30T10:32:00.700Z,4.40
2023-04-30T10:35:32.641Z,3.70
2023-04-30T10:38:37.259Z,4.90
2023-04-30T10:41:39.815Z,5.70
2023-04-30T10:44:41.637Z,5.20
2023-04-30T10:47:46.717Z,4.30
2023-04-30T10:50:50.655Z,6.20
2023-04-30T10:53:55.413Z,5.10
2023-04-30T10:57:13.476Z,5.80
2023-04-30T11:00:19.552Z,4.60
2023-04-30T11:03:21.657Z,7.00
2023-04-30T11:09:39.453Z,4.50
2023-04-30T11:12:47.151Z,2.90
2023-04-30T11:15:48.892Z,4.10
2023-04-30T11:18:51.024Z,5.60
2023-04-30T11:25:21.923Z,6.00
2023-04-30T11:28:26.146Z,3.50
2023-04-30T11:31:34.411Z,4.20
2023-04-30T11:34:37.417Z,5.70
2023-04-30T11:37:43.095Z,6.80
2023-04-30T11:40:48.332Z,4.50
2023-04-30T11:43:50.036Z,4.20
2023-04-30T11:46:52.538Z,5.00
2023-04-30T11:49:56.802Z,4.20
2023-04-30T11:53:04.764Z,5.70
2023-04-30T11:56:07.007Z,4.80
2023-04-30T11:59:12.030Z,4.90
2023-04-30T12:02:15.907Z,3.40
2023-04-30T12:05:19.923Z,5.50
2023-04-30T12:08:21.944Z,4.30
2023-04-30T12:11:29.387Z,5.00
2023-04-30T12:14:33.169Z,3.50
2023-04-30T12:17:35.569Z,3.60
2023-04-30T12:20:37.663Z,4.20
2023-04-30T12:23:39.696Z,5.90
2023-04-30T12:29:45.861Z,6.50
2023-04-30T12:32:52.589Z,4.20
2023-04-30T12:35:57.347Z,6.80
2023-04-30T12:39:06.602Z,7.10
2023-04-30T12:42:08.584Z,3.60
2023-04-30T12:45:11.091Z,4.30
2023-04-30T12:48:14.665Z,4.10
2023-04-30T12:51:19.404Z,3.50
2023-04-30T12:54:26.084Z,5.50
2023-04-30T12:57:28.435Z,6.20
2023-04-30T13:00:45.643Z,3.30
2023-04-30T13:03:47.768Z,8.10
2023-04-30T13:06:49.614Z,5.20
2023-04-30T13:09:51.555Z,5.10
2023-04-30T13:12:53.477Z,4.90
2023-04-30T13:15:55.269Z,5.40
2023-04-30T13:18:56.939Z,4.10
2023-04-30T13:21:59.062Z,3.70
2023-04-30T13:28:02.478Z,4.40
2023-04-30T13:31:04.231Z,6.30
2023-04-30T13:34:06.089Z,4.10
2023-04-30T13:37:08.259Z,3.90
2023-04-30T13:43:11.963Z,4.50
2023-04-30T13:46:14.466Z,5.20
2023-04-30T13:49:16.220Z,4.50
2023-04-30T13:52:17.959Z,4.30
2023-04-30T13:55:19.814Z,4.20
2023-04-30T13:58:21.518Z,4.30
2023-04-30T14:01:23.288Z,3.70
2023-04-30T14:04:25.053Z,4.70
2023-04-30T14:07:26.825Z,4.90
2023-04-30T14:10:28.622Z,3.90
2023-04-30T14:13:30.529Z,3.40
2023-04-30T14:16:32.392Z,6.30
2023-04-30T14:19:34.415Z,7.30
2023-04-30T14:22:37.844Z,4.60
2023-04-30T14:25:39.757Z,5.10
2023-04-30T14:28:41.515Z,5.20
2023-04-30T14:31:43.223Z,5.90
2023-04-30T14:34:44.975Z,5.00
2023-04-30T14:37:46.629Z,5.20
2023-04-30T14:40:48.315Z,5.40
2023-04-30T14:43:52.008Z,3.60
2023-04-30T14:46:53.888Z,3.50
2023-04-30T14:49:58.433Z,4.00
2023-04-30T14:53:00.150Z,6.90
2023-04-30T14:56:03.049Z,4.10
2023-04-30T14:59:04.790Z,6.80
2023-04-30T15:02:06.599Z,6.80
2023-04-30T15:05:08.665Z,4.20
2023-04-30T15:11:12.643Z,5.80
2023-04-30T15:14:16.275Z,6.30
2023-04-30T15:17:18.010Z,5.60
2023-04-30T15:20:19.824Z,6.90
2023-04-30T15:23:22.091Z,4.10
2023-04-30T15:26:25.265Z,3.70
2023-04-30T15:29:27.082Z,3.10
2023-04-30T15:32:29.295Z,4.40
2023-04-30T15:35:31.456Z,3.50
2023-04-30T15:38:33.934Z,3.90
2023-04-30T15:41:35.956Z,4.90
2023-04-30T15:47:40.563Z,6.80
2023-04-30T15:50:42.339Z,4.50
2023-04-30T15:53:44.052Z,6.00
2023-04-30T15:56:47.184Z,3.80
2023-04-30T15:59:48.858Z,5.80
2023-04-30T16:02:51.738Z,3.90
2023-04-30T16:06:11.895Z,6.30
2023-04-30T16:09:17.423Z,5.90
2023-04-30T16:12:21.068Z,4.40
2023-04-30T16:15:24.838Z,6.50
2023-04-30T16:18:30.123Z,3.50
2023-04-30T16:21:36.630Z,6.10
2023-04-30T16:24:43.110Z,4.10
2023-04-30T16:27:46.404Z,6.20
2023-04-30T16:30:50.075Z,7.30
2023-04-30T16:33:53.217Z,7.20
2023-04-30T16:36:56.386Z,4.80
2023-04-30T16:40:00.468Z,6.90
2023-04-30T16:46:10.777Z,7.20
2023-04-30T16:49:13.869Z,6.70
2023-04-30T16:52:18.931Z,6.30
2023-04-30T16:55:22.045Z,10.80
2023-04-30T16:58:25.271Z,7.80
2023-04-30T17:01:28.367Z,7.90
2023-04-30T17:04:31.762Z,5.30
2023-04-30T17:07:34.755Z,8.80
2023-04-30T17:10:39.066Z,8.00
2023-04-30T17:13:43.770Z,7.10
2023-04-30T17:16:47.069Z,4.30
2023-04-30T17:19:50.032Z,5.40
2023-04-30T17:22:53.497Z,6.50
2023-04-30T17:25:56.536Z,6.10
2023-04-30T17:28:59.533Z,6.60
2023-04-30T17:32:02.637Z,8.80
2023-04-30T17:35:06.793Z,7.00
2023-04-30T17:38:09.816Z,7.90
2023-04-30T17:41:12.865Z,7.90
2023-04-30T17:44:16.856Z,7.40
2023-04-30T17:47:19.916Z,7.70
2023-04-30T17:50:23.015Z,8.60
2023-04-30T17:53:26.056Z,7.90
2023-04-30T17:56:33.047Z,9.40
2023-04-30T17:59:38.539Z,8.10
2023-04-30T18:02:41.893Z,10.50
2023-04-30T18:05:45.196Z,8.50
2023-04-30T18:08:48.167Z,12.40
2023-04-30T18:11:51.844Z,9.10
2023-04-30T18:14:55.021Z,11.40
2023-04-30T18:17:59.389Z,13.10
2023-04-30T18:21:03.742Z,11.10
2023-04-30T18:24:06.703Z,12.50
2023-04-30T18:27:10.203Z,12.80
2023-04-30T18:30:13.479Z,14.70
2023-04-30T18:33:16.439Z,14.70
2023-04-30T18:36:19.677Z,12.00
2023-04-30T18:39:22.780Z,17.60
2023-04-30T18:42:25.968Z,23.00
2023-04-30T18:45:29.047Z,30.20
2023-04-30T18:48:32.438Z,25.00
2023-04-30T18:51:35.495Z,27.80
2023-04-30T18:54:38.502Z,23.10
2023-04-30T18:57:42.461Z,26.70
2023-04-30T19:00:45.764Z,26.40
2023-04-30T19:03:48.857Z,23.50
2023-04-30T19:06:54.470Z,24.90
2023-04-30T19:09:58.421Z,24.50
2023-04-30T19:13:01.658Z,25.60
2023-04-30T19:16:04.771Z,24.00
2023-04-30T19:19:07.748Z,24.00
2023-04-30T19:22:11.711Z,38.00
2023-04-30T19:25:14.768Z,39.10
2023-04-30T19:28:17.772Z,45.10
2023-04-30T19:31:22.388Z,58.70
2023-04-30T19:34:28.496Z,43.80
2023-04-30T19:37:31.653Z,45.50
2023-04-30T19:40:34.681Z,45.90
2023-04-30T19:43:38.194Z,53.40
2023-04-30T19:46:42.418Z,68.40
2023-04-30T19:49:47.384Z,70.50
2023-04-30T19:52:50.387Z,67.10
2023-04-30T19:55:53.570Z,68.00
2023-04-30T19:58:56.894Z,69.70
2023-04-30T20:01:59.937Z,57.20
2023-04-30T20:05:04.895Z,49.00
2023-04-30T20:08:09.671Z,48.00
2023-04-30T20:11:12.820Z,38.00
2023-04-30T20:14:16.011Z,29.30
2023-04-30T20:17:19.204Z,29.80
2023-04-30T20:20:25.895Z,27.10
2023-04-30T20:23:28.927Z,31.20
2023-04-30T20:26:32.156Z,28.30
2023-04-30T20:29:36.025Z,25.30
2023-04-30T20:32:40.555Z,26.60
2023-04-30T20:35:45.671Z,27.50
2023-04-30T20:38:49.101Z,31.40
2023-04-30T20:41:53.392Z,39.00
2023-04-30T20:44:56.574Z,46.10
2023-04-30T20:47:59.568Z,59.20
2023-04-30T20:51:02.538Z,94.50
2023-04-30T20:54:05.706Z,71.00
2023-04-30T20:57:09.087Z,80.70
2023-04-30T21:00:13.362Z,103.20
2023-04-30T21:03:16.917Z,100.00
2023-04-30T21:06:20.415Z,93.70
2023-04-30T21:09:23.434Z,93.50
2023-04-30T21:12:28.035Z,89.20
2023-04-30T21:15:35.304Z,81.10
2023-04-30T21:18:38.445Z,76.90
2023-04-30T21:21:41.405Z,74.80
2023-04-30T21:24:44.393Z,71.40
2023-04-30T21:27:47.495Z,69.30
2023-04-30T21:30:50.563Z,55.60
2023-04-30T21:33:53.762Z,55.50
2023-04-30T21:36:57.120Z,50.90
2023-04-30T21:40:00.044Z,43.10
2023-04-30T21:43:03.863Z,39.40
2023-04-30T21:46:07.444Z,41.10
2023-04-30T21:49:10.553Z,40.00
2023-04-30T21:52:13.663Z,40.10
2023-04-30T21:55:17.190Z,36.60
2023-04-30T21:58:20.129Z,37.50
2023-04-30T22:01:27.552Z,37.30
2023-04-30T22:04:30.822Z,42.10
2023-04-30T22:07:34.233Z,51.90
2023-04-30T22:10:37.247Z,41.50
2023-04-30T22:13:40.230Z,42.70
2023-04-30T22:16:43.686Z,45.70
2023-04-30T22:19:46.794Z,47.80
2023-04-30T22:22:49.774Z,54.20
2023-04-30T22:25:53.420Z,47.20
2023-04-30T22:28:57.201Z,47.20
2023-04-30T22:32:01.546Z,42.90
2023-04-30T22:35:06.940Z,45.90
2023-04-30T22:38:11.054Z,40.30
2023-04-30T22:41:14.276Z,40.70
2023-04-30T22:44:17.971Z,40.20
2023-04-30T22:47:21.166Z,41.00
2023-04-30T22:50:24.180Z,45.50
2023-04-30T22:53:28.515Z,40.60
2023-04-30T22:56:31.796Z,41.50
2023-04-30T22:59:34.838Z,39.80
2023-04-30T23:02:37.879Z,44.30
2023-04-30T23:05:40.984Z,47.10
2023-04-30T23:08:44.384Z,45.20
2023-04-30T23:11:48.298Z,42.80
2023-04-30T23:14:51.539Z,43.20
2023-04-30T23:17:54.789Z,44.80
2023-04-30T23:20:59.016Z,41.00
2023-04-30T23:24:03.960Z,43.10
2023-04-30T23:27:08.124Z,47.10
2023-04-30T23:30:11.449Z,39.00
2023-04-30T23:33:14.461Z,35.70
2023-04-30T23:36:17.488Z,36.10
2023-04-30T23:39:20.596Z,35.90
2023-04-30T23:42:23.632Z,34.30
2023-04-30T23:45:26.668Z,25.50
2023-04-30T23:48:30.480Z,24.80
2023-04-30T23:51:33.554Z,24.40
2023-04-30T23:54:36.640Z,23.00
2023-04-30T23:57:39.621Z,21.10
